createdAt,value
2023-09-06T00:10:41.602Z,98.08
2023-09-06T00:25:45.290Z,98.64
2023-09-06T00:40:51.498Z,99.58
2023-09-06T00:55:55.039Z,99.51
2023-09-06T01:11:20.460Z,98.58
2023-09-06T01:26:24.196Z,98.16
2023-09-06T01:41:27.413Z,97.85
2023-09-06T01:56:30.867Z,99.27
2023-09-06T02:11:35.579Z,99.74
2023-09-06T02:26:38.770Z,100.00
2023-09-06T02:41:42.053Z,99.86
2023-09-06T02:56:47.124Z,99.96
2023-09-06T03:11:53.105Z,100.00
2023-09-06T03:26:56.320Z,100.00
2023-09-06T03:42:02.412Z,100.00
2023-09-06T03:57:05.980Z,100.00
2023-09-06T04:12:09.464Z,100.00
2023-09-06T04:27:13.758Z,100.00
2023-09-06T04:42:17.283Z,100.00
2023-09-06T04:57:22.304Z,100.00
2023-09-06T05:12:25.672Z,100.00
2023-09-06T05:27:29.169Z,100.00
2023-09-06T05:42:32.793Z,100.00
2023-09-06T05:57:36.737Z,96.99
2023-09-06T06:12:40.684Z,82.46
2023-09-06T06:27:44.137Z,73.84
2023-09-06T06:42:47.424Z,66.64
2023-09-06T06:57:50.887Z,61.85
2023-09-06T07:12:54.152Z,60.23
2023-09-06T07:27:59.534Z,57.74
2023-09-06T07:43:02.698Z,56.43
2023-09-06T07:58:05.842Z,56.19
2023-09-06T08:13:08.942Z,55.94
2023-09-06T08:28:15.785Z,54.98
2023-09-06T08:43:20.168Z,52.85
2023-09-06T08:58:23.920Z,52.38
2023-09-06T09:13:27.506Z,52.15
2023-09-06T09:28:35.027Z,52.90
2023-09-06T09:43:38.491Z,51.59
2023-09-06T09:58:41.836Z,51.08
2023-09-06T10:13:45.408Z,52.68
2023-09-06T10:28:56.978Z,52.57
2023-09-06T10:44:00.364Z,53.19
2023-09-06T10:59:05.748Z,53.11
2023-09-06T11:14:08.997Z,52.75
2023-09-06T11:29:16.197Z,53.04
2023-09-06T11:44:20.754Z,54.04
2023-09-06T11:59:26.063Z,53.84
2023-09-06T12:14:32.452Z,53.87
2023-09-06T12:29:36.802Z,54.87
2023-09-06T12:44:40.011Z,54.00
2023-09-06T12:59:43.262Z,53.59
2023-09-06T13:14:46.529Z,54.07
2023-09-06T13:29:56.468Z,55.09
2023-09-06T13:45:00.347Z,55.97
2023-09-06T14:00:07.031Z,56.03
2023-09-06T14:15:11.016Z,56.61
2023-09-06T14:30:15.150Z,57.68
2023-09-06T14:45:18.974Z,59.07
2023-09-06T15:00:23.549Z,57.75
2023-09-06T15:15:30.489Z,56.61
2023-09-06T15:30:34.056Z,57.67
2023-09-06T15:45:37.920Z,59.78
2023-09-06T16:00:43.107Z,60.82
2023-09-06T16:15:48.085Z,62.70
2023-09-06T16:30:51.383Z,66.11
2023-09-06T16:45:54.864Z,68.41
2023-09-06T17:00:58.672Z,70.68
2023-09-06T17:16:02.458Z,72.77
2023-09-06T17:31:06.799Z,73.44
2023-09-06T17:46:11.063Z,73.09
2023-09-06T18:01:16.168Z,72.80
2023-09-06T18:16:21.396Z,73.02
2023-09-06T18:31:26.442Z,74.35
2023-09-06T18:46:31.115Z,75.96
2023-09-06T19:01:37.331Z,77.54
2023-09-06T19:16:41.656Z,78.68
2023-09-06T19:31:46.093Z,79.43
2023-09-06T19:46:50.222Z,80.04
2023-09-06T20:01:55.838Z,80.94
2023-09-06T20:16:59.509Z,82.48
2023-09-06T20:32:03.381Z,83.71
2023-09-06T20:47:10.220Z,84.97
2023-09-06T21:02:13.617Z,86.12
2023-09-06T21:17:16.839Z,86.82
2023-09-06T21:32:20.009Z,86.75
2023-09-06T21:47:24.201Z,86.35
2023-09-06T22:02:27.370Z,86.93
2023-09-06T22:17:49.086Z,87.32
2023-09-06T22:32:52.350Z,88.22
2023-09-06T22:47:55.434Z,88.63
2023-09-06T23:02:58.485Z,89.32
2023-09-06T23:18:01.790Z,89.47
2023-09-06T23:33:13.317Z,90.26
2023-09-06T23:48:17.293Z,91.23
